Terminal Aerodrome Forecast
Issued by NWS

Home | Current Version | Previous Version | Text Only | Print | Product List | Glossary On
Versions: 1 2 3 4 5 6 7 8 9 10 11 12 13 14 15 16 17
494
FTUS43 KPAH 220520
TAFCGI
TAF
KCGI 220520Z 2206/2306 20005KT P6SM FEW200
     FM221200 24007KT P6SM SCT035 BKN150
     FM221500 26011G18KT P6SM VCSH BKN035 PROB30 2218/2221 4SM -TSRA
      BR BKN025CB
     FM222300 35006KT P6SM BKN060=

USA.gov is the U.S. government's official web portal to all federal, state and local government web resources and services.